sensor_id;sensor_type;location;lat;lon;timestamp;P1;durP1;ratioP1;P2;durP2;ratioP2
72117;SDS011;59992;47.490;8.736;2024-01-15T00:01:01;34.60;;;11.70;;
72117;SDS011;59992;47.490;8.736;2024-01-15T00:03:52;29.10;;;11.60;;
72117;SDS011;59992;47.490;8.736;2024-01-15T00:06:42;33.10;;;11.80;;
72117;SDS011;59992;47.490;8.736;2024-01-15T00:09:33;25.50;;;9.50;;
72117;SDS011;59992;47.490;8.736;2024-01-15T00:12:24;28.30;;;10.70;;
72117;SDS011;59992;47.490;8.736;2024-01-15T00:15:14;32.00;;;11.80;;
72117;SDS011;59992;47.490;8.736;2024-01-15T00:18:05;32.70;;;11.40;;
72117;SDS011;59992;47.490;8.736;2024-01-15T00:20:55;31.10;;;10.80;;
72117;SDS011;59992;47.490;8.736;2024-01-15T00:23:46;34.10;;;11.60;;
72117;SDS011;59992;47.490;8.736;2024-01-15T00:26:36;28.30;;;11.40;;
72117;SDS011;59992;47.490;8.736;2024-01-15T00:29:26;32.30;;;12.10;;
72117;SDS011;59992;47.490;8.736;2024-01-15T00:32:17;32.40;;;11.70;;
72117;SDS011;59992;47.490;8.736;2024-01-15T00:35:07;39.00;;;12.90;;
72117;SDS011;59992;47.490;8.736;2024-01-15T00:37:58;30.80;;;11.70;;
72117;SDS011;59992;47.490;8.736;2024-01-15T00:40:48;37.80;;;13.50;;
72117;SDS011;59992;47.490;8.736;2024-01-15T00:43:39;24.10;;;9.40;;
72117;SDS011;59992;47.490;8.736;2024-01-15T00:46:29;30.60;;;10.80;;
72117;SDS011;59992;47.490;8.736;2024-01-15T00:49:19;30.00;;;10.90;;
72117;SDS011;59992;47.490;8.736;2024-01-15T00:52:09;34.70;;;13.10;;
72117;SDS011;59992;47.490;8.736;2024-01-15T00:54:59;27.30;;;11.10;;
72117;SDS011;59992;47.490;8.736;2024-01-15T00:57:50;26.30;;;9.60;;
72117;SDS011;59992;47.490;8.736;2024-01-15T01:00:41;26.20;;;9.90;;
72117;SDS011;59992;47.490;8.736;2024-01-15T01:03:32;29.20;;;11.40;;
72117;SDS011;59992;47.490;8.736;2024-01-15T01:06:22;27.60;;;10.70;;
72117;SDS011;59992;47.490;8.736;2024-01-15T01:09:13;26.70;;;10.10;;
72117;SDS011;59992;47.490;8.736;2024-01-15T01:12:03;24.40;;;9.80;;
72117;SDS011;59992;47.490;8.736;2024-01-15T01:14:54;31.70;;;11.20;;
72117;SDS011;59992;47.490;8.736;2024-01-15T01:17:46;34.70;;;11.40;;
72117;SDS011;59992;47.490;8.736;2024-01-15T01:20:36;33.50;;;11.80;;
72117;SDS011;59992;47.490;8.736;2024-01-15T01:23:26;29.50;;;11.80;;
72117;SDS011;59992;47.490;8.736;2024-01-15T01:26:16;32.30;;;12.40;;
72117;SDS011;59992;47.490;8.736;2024-01-15T01:29:07;34.70;;;12.70;;
72117;SDS011;59992;47.490;8.736;2024-01-15T01:31:57;38.40;;;13.70;;
72117;SDS011;59992;47.490;8.736;2024-01-15T01:34:47;37.20;;;12.50;;
72117;SDS011;59992;47.490;8.736;2024-01-15T01:37:38;31.60;;;11.30;;
72117;SDS011;59992;47.490;8.736;2024-01-15T01:40:28;36.20;;;14.10;;
72117;SDS011;59992;47.490;8.736;2024-01-15T01:43:18;39.20;;;13.90;;
72117;SDS011;59992;47.490;8.736;2024-01-15T01:46:08;25.80;;;10.60;;
72117;SDS011;59992;47.490;8.736;2024-01-15T01:48:59;23.90;;;8.40;;
72117;SDS011;59992;47.490;8.736;2024-01-15T01:51:52;31.10;;;11.50;;
72117;SDS011;59992;47.490;8.736;2024-01-15T01:54:45;25.00;;;9.60;;
72117;SDS011;59992;47.490;8.736;2024-01-15T01:57:36;26.40;;;9.70;;
72117;SDS011;59992;47.490;8.736;2024-01-15T02:00:26;21.80;;;9.80;;
72117;SDS011;59992;47.490;8.736;2024-01-15T02:03:17;24.30;;;9.50;;
72117;SDS011;59992;47.490;8.736;2024-01-15T02:06:07;25.50;;;10.30;;
72117;SDS011;59992;47.490;8.736;2024-01-15T02:08:57;19.90;;;8.90;;
72117;SDS011;59992;47.490;8.736;2024-01-15T02:11:47;22.60;;;9.70;;
72117;SDS011;59992;47.490;8.736;2024-01-15T02:14:40;25.10;;;10.00;;
72117;SDS011;59992;47.490;8.736;2024-01-15T02:17:31;27.20;;;10.90;;
72117;SDS011;59992;47.490;8.736;2024-01-15T02:20:21;25.30;;;9.30;;
72117;SDS011;59992;47.490;8.736;2024-01-15T02:23:12;26.30;;;9.50;;
72117;SDS011;59992;47.490;8.736;2024-01-15T02:26:05;25.60;;;10.80;;
72117;SDS011;59992;47.490;8.736;2024-01-15T02:28:56;26.50;;;10.10;;
72117;SDS011;59992;47.490;8.736;2024-01-15T02:31:46;28.50;;;11.40;;
72117;SDS011;59992;47.490;8.736;2024-01-15T02:34:37;29.60;;;10.10;;
72117;SDS011;59992;47.490;8.736;2024-01-15T02:37:27;27.10;;;11.00;;
72117;SDS011;59992;47.490;8.736;2024-01-15T02:40:17;30.90;;;10.30;;
72117;SDS011;59992;47.490;8.736;2024-01-15T02:43:07;29.40;;;10.70;;
72117;SDS011;59992;47.490;8.736;2024-01-15T02:45:57;24.60;;;8.90;;
72117;SDS011;59992;47.490;8.736;2024-01-15T02:48:47;25.60;;;9.60;;
72117;SDS011;59992;47.490;8.736;2024-01-15T02:51:37;32.50;;;11.20;;
72117;SDS011;59992;47.490;8.736;2024-01-15T02:54:28;26.10;;;8.60;;
72117;SDS011;59992;47.490;8.736;2024-01-15T02:57:18;28.60;;;9.70;;
72117;SDS011;59992;47.490;8.736;2024-01-15T03:00:09;26.60;;;10.40;;
72117;SDS011;59992;47.490;8.736;2024-01-15T03:03:00;27.10;;;9.40;;
72117;SDS011;59992;47.490;8.736;2024-01-15T03:05:50;28.40;;;10.40;;
72117;SDS011;59992;47.490;8.736;2024-01-15T03:08:42;23.60;;;9.20;;
72117;SDS011;59992;47.490;8.736;2024-01-15T03:11:38;22.50;;;8.90;;
72117;SDS011;59992;47.490;8.736;2024-01-15T03:14:29;24.10;;;8.20;;
72117;SDS011;59992;47.490;8.736;2024-01-15T03:17:19;31.50;;;10.80;;
72117;SDS011;59992;47.490;8.736;2024-01-15T03:20:11;24.60;;;8.30;;
72117;SDS011;59992;47.490;8.736;2024-01-15T03:23:01;31.10;;;10.10;;
72117;SDS011;59992;47.490;8.736;2024-01-15T03:25:51;25.70;;;10.70;;
72117;SDS011;59992;47.490;8.736;2024-01-15T03:28:42;22.20;;;7.90;;
72117;SDS011;59992;47.490;8.736;2024-01-15T03:31:32;30.20;;;10.70;;
72117;SDS011;59992;47.490;8.736;2024-01-15T03:34:22;25.50;;;10.20;;
72117;SDS011;59992;47.490;8.736;2024-01-15T03:37:12;23.50;;;8.10;;
72117;SDS011;59992;47.490;8.736;2024-01-15T03:40:03;20.10;;;6.50;;
72117;SDS011;59992;47.490;8.736;2024-01-15T03:42:54;24.80;;;8.60;;
72117;SDS011;59992;47.490;8.736;2024-01-15T03:45:45;25.50;;;8.40;;
72117;SDS011;59992;47.490;8.736;2024-01-15T03:48:35;27.20;;;9.30;;
72117;SDS011;59992;47.490;8.736;2024-01-15T03:51:25;23.80;;;8.10;;
72117;SDS011;59992;47.490;8.736;2024-01-15T03:54:16;25.60;;;8.20;;
72117;SDS011;59992;47.490;8.736;2024-01-15T03:57:06;22.30;;;8.20;;
72117;SDS011;59992;47.490;8.736;2024-01-15T03:59:57;23.00;;;7.70;;
72117;SDS011;59992;47.490;8.736;2024-01-15T04:02:47;22.10;;;8.00;;
72117;SDS011;59992;47.490;8.736;2024-01-15T04:05:37;20.50;;;7.60;;
72117;SDS011;59992;47.490;8.736;2024-01-15T04:08:28;22.30;;;7.00;;
72117;SDS011;59992;47.490;8.736;2024-01-15T04:11:18;22.30;;;7.30;;
72117;SDS011;59992;47.490;8.736;2024-01-15T04:14:09;20.70;;;6.50;;
72117;SDS011;59992;47.490;8.736;2024-01-15T04:17:00;19.60;;;7.50;;
72117;SDS011;59992;47.490;8.736;2024-01-15T04:19:50;19.60;;;6.00;;
72117;SDS011;59992;47.490;8.736;2024-01-15T04:22:40;18.40;;;6.30;;
72117;SDS011;59992;47.490;8.736;2024-01-15T04:25:32;20.60;;;7.10;;
72117;SDS011;59992;47.490;8.736;2024-01-15T04:28:22;19.10;;;6.40;;
72117;SDS011;59992;47.490;8.736;2024-01-15T04:31:21;26.90;;;8.60;;
72117;SDS011;59992;47.490;8.736;2024-01-15T04:34:14;24.90;;;7.90;;
72117;SDS011;59992;47.490;8.736;2024-01-15T04:37:04;23.80;;;8.00;;
72117;SDS011;59992;47.490;8.736;2024-01-15T04:39:55;20.20;;;6.20;;
72117;SDS011;59992;47.490;8.736;2024-01-15T04:42:46;17.60;;;6.80;;
72117;SDS011;59992;47.490;8.736;2024-01-15T04:45:36;21.20;;;7.10;;
72117;SDS011;59992;47.490;8.736;2024-01-15T04:48:27;27.60;;;8.80;;
72117;SDS011;59992;47.490;8.736;2024-01-15T04:51:17;25.00;;;8.00;;
72117;SDS011;59992;47.490;8.736;2024-01-15T04:54:08;22.60;;;8.50;;
72117;SDS011;59992;47.490;8.736;2024-01-15T04:56:58;20.90;;;7.60;;
72117;SDS011;59992;47.490;8.736;2024-01-15T04:59:49;24.70;;;7.60;;
72117;SDS011;59992;47.490;8.736;2024-01-15T05:02:39;21.20;;;7.00;;
72117;SDS011;59992;47.490;8.736;2024-01-15T05:05:30;19.40;;;6.70;;
72117;SDS011;59992;47.490;8.736;2024-01-15T05:08:21;22.30;;;6.80;;
72117;SDS011;59992;47.490;8.736;2024-01-15T05:11:11;21.50;;;7.90;;
72117;SDS011;59992;47.490;8.736;2024-01-15T05:14:03;18.10;;;6.70;;
72117;SDS011;59992;47.490;8.736;2024-01-15T05:16:53;17.70;;;6.00;;
72117;SDS011;59992;47.490;8.736;2024-01-15T05:19:43;21.40;;;7.70;;
72117;SDS011;59992;47.490;8.736;2024-01-15T05:22:33;19.50;;;6.90;;
72117;SDS011;59992;47.490;8.736;2024-01-15T05:25:24;18.70;;;6.80;;
72117;SDS011;59992;47.490;8.736;2024-01-15T05:28:15;18.10;;;6.20;;
72117;SDS011;59992;47.490;8.736;2024-01-15T05:31:05;25.90;;;8.70;;
72117;SDS011;59992;47.490;8.736;2024-01-15T05:33:55;23.60;;;7.90;;
72117;SDS011;59992;47.490;8.736;2024-01-15T05:36:46;18.30;;;6.80;;
72117;SDS011;59992;47.490;8.736;2024-01-15T05:39:36;16.90;;;5.80;;
72117;SDS011;59992;47.490;8.736;2024-01-15T05:42:26;22.10;;;7.30;;
72117;SDS011;59992;47.490;8.736;2024-01-15T05:45:17;21.50;;;7.30;;
72117;SDS011;59992;47.490;8.736;2024-01-15T05:48:07;23.50;;;7.50;;
72117;SDS011;59992;47.490;8.736;2024-01-15T05:50:58;25.90;;;8.80;;
72117;SDS011;59992;47.490;8.736;2024-01-15T05:53:49;21.90;;;7.40;;
72117;SDS011;59992;47.490;8.736;2024-01-15T05:56:39;20.40;;;7.10;;
72117;SDS011;59992;47.490;8.736;2024-01-15T05:59:29;24.40;;;7.90;;
72117;SDS011;59992;47.490;8.736;2024-01-15T06:02:23;21.80;;;7.30;;
72117;SDS011;59992;47.490;8.736;2024-01-15T06:05:14;21.60;;;8.20;;
72117;SDS011;59992;47.490;8.736;2024-01-15T06:08:04;21.80;;;7.40;;
72117;SDS011;59992;47.490;8.736;2024-01-15T06:10:55;22.80;;;7.80;;
72117;SDS011;59992;47.490;8.736;2024-01-15T06:13:46;20.70;;;5.90;;
72117;SDS011;59992;47.490;8.736;2024-01-15T06:16:36;20.50;;;7.10;;
72117;SDS011;59992;47.490;8.736;2024-01-15T06:19:27;21.40;;;6.30;;
72117;SDS011;59992;47.490;8.736;2024-01-15T06:22:17;20.90;;;6.70;;
72117;SDS011;59992;47.490;8.736;2024-01-15T06:25:08;20.20;;;7.30;;
72117;SDS011;59992;47.490;8.736;2024-01-15T06:27:58;16.80;;;6.30;;
72117;SDS011;59992;47.490;8.736;2024-01-15T06:30:48;24.30;;;7.90;;
72117;SDS011;59992;47.490;8.736;2024-01-15T06:33:39;19.60;;;6.90;;
72117;SDS011;59992;47.490;8.736;2024-01-15T06:36:29;21.70;;;7.20;;
72117;SDS011;59992;47.490;8.736;2024-01-15T06:39:19;26.80;;;8.00;;
72117;SDS011;59992;47.490;8.736;2024-01-15T06:42:10;16.30;;;5.90;;
72117;SDS011;59992;47.490;8.736;2024-01-15T06:45:00;17.70;;;5.90;;
72117;SDS011;59992;47.490;8.736;2024-01-15T06:47:51;22.90;;;8.50;;
72117;SDS011;59992;47.490;8.736;2024-01-15T06:50:41;21.40;;;6.80;;
72117;SDS011;59992;47.490;8.736;2024-01-15T06:53:32;17.00;;;5.90;;
72117;SDS011;59992;47.490;8.736;2024-01-15T06:56:22;16.40;;;6.50;;
72117;SDS011;59992;47.490;8.736;2024-01-15T06:59:13;19.70;;;6.90;;
72117;SDS011;59992;47.490;8.736;2024-01-15T07:02:03;17.40;;;6.30;;
72117;SDS011;59992;47.490;8.736;2024-01-15T07:04:53;19.10;;;6.50;;
72117;SDS011;59992;47.490;8.736;2024-01-15T07:07:43;21.40;;;7.30;;
72117;SDS011;59992;47.490;8.736;2024-01-15T07:10:35;19.90;;;6.70;;
72117;SDS011;59992;47.490;8.736;2024-01-15T07:13:25;16.50;;;5.70;;
72117;SDS011;59992;47.490;8.736;2024-01-15T07:16:16;18.40;;;6.60;;
72117;SDS011;59992;47.490;8.736;2024-01-15T07:19:08;19.60;;;6.40;;
72117;SDS011;59992;47.490;8.736;2024-01-15T07:21:58;18.20;;;7.10;;
72117;SDS011;59992;47.490;8.736;2024-01-15T07:24:49;15.50;;;5.80;;
72117;SDS011;59992;47.490;8.736;2024-01-15T07:27:39;22.10;;;7.90;;
72117;SDS011;59992;47.490;8.736;2024-01-15T07:30:33;16.10;;;6.60;;
72117;SDS011;59992;47.490;8.736;2024-01-15T07:33:26;18.60;;;6.50;;
72117;SDS011;59992;47.490;8.736;2024-01-15T07:36:16;21.70;;;7.70;;
72117;SDS011;59992;47.490;8.736;2024-01-15T07:39:06;18.00;;;6.40;;
72117;SDS011;59992;47.490;8.736;2024-01-15T07:41:58;18.70;;;6.30;;
72117;SDS011;59992;47.490;8.736;2024-01-15T07:44:49;19.60;;;7.10;;
72117;SDS011;59992;47.490;8.736;2024-01-15T07:47:39;21.10;;;7.10;;
72117;SDS011;59992;47.490;8.736;2024-01-15T07:50:30;17.90;;;6.30;;
72117;SDS011;59992;47.490;8.736;2024-01-15T07:53:20;15.30;;;6.60;;
72117;SDS011;59992;47.490;8.736;2024-01-15T07:56:13;11.80;;;5.00;;
72117;SDS011;59992;47.490;8.736;2024-01-15T07:59:04;15.80;;;6.00;;
72117;SDS011;59992;47.490;8.736;2024-01-15T08:01:54;22.90;;;7.50;;
72117;SDS011;59992;47.490;8.736;2024-01-15T08:04:44;18.30;;;7.10;;
72117;SDS011;59992;47.490;8.736;2024-01-15T08:07:34;17.30;;;5.30;;
72117;SDS011;59992;47.490;8.736;2024-01-15T08:10:24;20.90;;;7.70;;
72117;SDS011;59992;47.490;8.736;2024-01-15T08:13:15;16.60;;;6.50;;
72117;SDS011;59992;47.490;8.736;2024-01-15T08:16:05;15.10;;;6.20;;
72117;SDS011;59992;47.490;8.736;2024-01-15T08:18:55;16.80;;;6.00;;
72117;SDS011;59992;47.490;8.736;2024-01-15T08:21:46;12.20;;;4.50;;
72117;SDS011;59992;47.490;8.736;2024-01-15T08:24:37;17.10;;;5.80;;
72117;SDS011;59992;47.490;8.736;2024-01-15T08:27:27;20.40;;;6.50;;
72117;SDS011;59992;47.490;8.736;2024-01-15T08:30:17;15.60;;;5.50;;
72117;SDS011;59992;47.490;8.736;2024-01-15T08:33:10;14.70;;;5.90;;
72117;SDS011;59992;47.490;8.736;2024-01-15T08:36:00;17.50;;;6.60;;
72117;SDS011;59992;47.490;8.736;2024-01-15T08:38:51;17.20;;;6.20;;
72117;SDS011;59992;47.490;8.736;2024-01-15T08:41:41;15.50;;;5.90;;
72117;SDS011;59992;47.490;8.736;2024-01-15T08:44:31;15.80;;;6.80;;
72117;SDS011;59992;47.490;8.736;2024-01-15T08:47:22;17.50;;;6.20;;
72117;SDS011;59992;47.490;8.736;2024-01-15T08:50:13;20.70;;;6.60;;
72117;SDS011;59992;47.490;8.736;2024-01-15T08:53:03;13.80;;;5.50;;
72117;SDS011;59992;47.490;8.736;2024-01-15T08:55:54;14.10;;;5.40;;
72117;SDS011;59992;47.490;8.736;2024-01-15T08:58:44;16.70;;;6.10;;
72117;SDS011;59992;47.490;8.736;2024-01-15T09:01:35;14.20;;;5.90;;
72117;SDS011;59992;47.490;8.736;2024-01-15T09:04:26;16.00;;;6.20;;
72117;SDS011;59992;47.490;8.736;2024-01-15T09:07:17;14.70;;;5.30;;
72117;SDS011;59992;47.490;8.736;2024-01-15T09:10:07;18.30;;;6.00;;
72117;SDS011;59992;47.490;8.736;2024-01-15T09:12:58;19.80;;;6.20;;
72117;SDS011;59992;47.490;8.736;2024-01-15T09:15:51;12.40;;;4.90;;
72117;SDS011;59992;47.490;8.736;2024-01-15T09:18:41;14.10;;;5.30;;
72117;SDS011;59992;47.490;8.736;2024-01-15T09:21:31;14.60;;;5.20;;
72117;SDS011;59992;47.490;8.736;2024-01-15T09:24:21;14.10;;;5.00;;
72117;SDS011;59992;47.490;8.736;2024-01-15T09:27:11;11.40;;;4.50;;
72117;SDS011;59992;47.490;8.736;2024-01-15T09:30:02;13.80;;;5.60;;
72117;SDS011;59992;47.490;8.736;2024-01-15T09:32:53;8.90;;;3.70;;
72117;SDS011;59992;47.490;8.736;2024-01-15T09:35:44;13.00;;;4.70;;
72117;SDS011;59992;47.490;8.736;2024-01-15T09:38:35;13.70;;;6.00;;
72117;SDS011;59992;47.490;8.736;2024-01-15T09:41:25;13.80;;;4.90;;
72117;SDS011;59992;47.490;8.736;2024-01-15T09:44:16;14.90;;;5.80;;
72117;SDS011;59992;47.490;8.736;2024-01-15T09:47:08;13.20;;;5.40;;
72117;SDS011;59992;47.490;8.736;2024-01-15T09:49:59;11.60;;;4.90;;
72117;SDS011;59992;47.490;8.736;2024-01-15T09:52:51;14.00;;;5.20;;
72117;SDS011;59992;47.490;8.736;2024-01-15T09:55:44;17.10;;;5.70;;
72117;SDS011;59992;47.490;8.736;2024-01-15T09:58:35;11.40;;;4.30;;
72117;SDS011;59992;47.490;8.736;2024-01-15T10:01:27;12.20;;;4.90;;
72117;SDS011;59992;47.490;8.736;2024-01-15T10:04:19;12.00;;;4.00;;
72117;SDS011;59992;47.490;8.736;2024-01-15T10:07:10;12.50;;;4.70;;
72117;SDS011;59992;47.490;8.736;2024-01-15T10:10:04;12.70;;;5.00;;
72117;SDS011;59992;47.490;8.736;2024-01-15T10:12:56;13.40;;;5.20;;
72117;SDS011;59992;47.490;8.736;2024-01-15T10:15:47;14.30;;;5.10;;
72117;SDS011;59992;47.490;8.736;2024-01-15T10:18:37;14.90;;;5.30;;
72117;SDS011;59992;47.490;8.736;2024-01-15T10:21:28;12.70;;;5.40;;
72117;SDS011;59992;47.490;8.736;2024-01-15T10:24:19;8.70;;;3.70;;
72117;SDS011;59992;47.490;8.736;2024-01-15T10:27:11;8.40;;;4.00;;
72117;SDS011;59992;47.490;8.736;2024-01-15T10:30:02;13.00;;;4.90;;
72117;SDS011;59992;47.490;8.736;2024-01-15T10:32:58;10.40;;;4.70;;
72117;SDS011;59992;47.490;8.736;2024-01-15T10:35:49;11.70;;;4.30;;
72117;SDS011;59992;47.490;8.736;2024-01-15T10:38:41;9.70;;;4.00;;
72117;SDS011;59992;47.490;8.736;2024-01-15T10:41:33;11.10;;;4.20;;
72117;SDS011;59992;47.490;8.736;2024-01-15T10:44:23;8.90;;;4.60;;
72117;SDS011;59992;47.490;8.736;2024-01-15T10:47:13;12.10;;;4.20;;
72117;SDS011;59992;47.490;8.736;2024-01-15T10:50:06;8.40;;;3.40;;
72117;SDS011;59992;47.490;8.736;2024-01-15T10:52:57;8.60;;;3.10;;
72117;SDS011;59992;47.490;8.736;2024-01-15T10:55:48;9.90;;;4.30;;
72117;SDS011;59992;47.490;8.736;2024-01-15T10:58:40;4.70;;;2.20;;
72117;SDS011;59992;47.490;8.736;2024-01-15T11:01:32;7.70;;;3.10;;
72117;SDS011;59992;47.490;8.736;2024-01-15T11:04:22;9.50;;;4.30;;
72117;SDS011;59992;47.490;8.736;2024-01-15T11:07:15;8.30;;;3.70;;
72117;SDS011;59992;47.490;8.736;2024-01-15T11:10:09;10.60;;;4.00;;
72117;SDS011;59992;47.490;8.736;2024-01-15T11:13:40;7.70;;;3.80;;
72117;SDS011;59992;47.490;8.736;2024-01-15T11:19:47;10.80;;;5.30;;
72117;SDS011;59992;47.490;8.736;2024-01-15T11:22:51;7.50;;;3.60;;
72117;SDS011;59992;47.490;8.736;2024-01-15T11:25:41;7.00;;;3.40;;
72117;SDS011;59992;47.490;8.736;2024-01-15T11:28:48;9.20;;;3.80;;
72117;SDS011;59992;47.490;8.736;2024-01-15T11:34:58;7.10;;;3.70;;
72117;SDS011;59992;47.490;8.736;2024-01-15T11:37:58;9.50;;;4.30;;
72117;SDS011;59992;47.490;8.736;2024-01-15T11:40:49;9.30;;;3.70;;
72117;SDS011;59992;47.490;8.736;2024-01-15T11:43:39;13.80;;;5.50;;
72117;SDS011;59992;47.490;8.736;2024-01-15T11:46:30;10.40;;;4.50;;
72117;SDS011;59992;47.490;8.736;2024-01-15T11:49:31;10.70;;;4.00;;
72117;SDS011;59992;47.490;8.736;2024-01-15T11:52:39;9.50;;;4.40;;
72117;SDS011;59992;47.490;8.736;2024-01-15T11:55:36;10.70;;;5.10;;
72117;SDS011;59992;47.490;8.736;2024-01-15T11:58:32;10.90;;;5.30;;
72117;SDS011;59992;47.490;8.736;2024-01-15T12:01:24;9.80;;;4.30;;
72117;SDS011;59992;47.490;8.736;2024-01-15T12:04:15;9.60;;;4.80;;
72117;SDS011;59992;47.490;8.736;2024-01-15T12:07:07;9.10;;;4.50;;
72117;SDS011;59992;47.490;8.736;2024-01-15T12:09:57;9.50;;;4.10;;
72117;SDS011;59992;47.490;8.736;2024-01-15T12:12:53;10.20;;;4.50;;
72117;SDS011;59992;47.490;8.736;2024-01-15T12:15:47;11.20;;;4.30;;
72117;SDS011;59992;47.490;8.736;2024-01-15T12:18:37;7.90;;;3.70;;
72117;SDS011;59992;47.490;8.736;2024-01-15T12:21:29;11.00;;;4.70;;
72117;SDS011;59992;47.490;8.736;2024-01-15T12:24:19;9.30;;;4.00;;
72117;SDS011;59992;47.490;8.736;2024-01-15T12:27:09;10.70;;;4.50;;
72117;SDS011;59992;47.490;8.736;2024-01-15T12:30:00;8.30;;;3.80;;
72117;SDS011;59992;47.490;8.736;2024-01-15T12:32:50;10.80;;;4.40;;
72117;SDS011;59992;47.490;8.736;2024-01-15T12:35:40;9.30;;;4.60;;
72117;SDS011;59992;47.490;8.736;2024-01-15T12:38:30;9.90;;;3.90;;
72117;SDS011;59992;47.490;8.736;2024-01-15T12:41:21;9.10;;;4.60;;
72117;SDS011;59992;47.490;8.736;2024-01-15T12:44:13;9.80;;;4.70;;
72117;SDS011;59992;47.490;8.736;2024-01-15T12:47:04;8.20;;;4.10;;
72117;SDS011;59992;47.490;8.736;2024-01-15T12:49:55;8.60;;;3.70;;
72117;SDS011;59992;47.490;8.736;2024-01-15T12:52:46;7.80;;;3.80;;
72117;SDS011;59992;47.490;8.736;2024-01-15T12:55:37;8.20;;;3.70;;
72117;SDS011;59992;47.490;8.736;2024-01-15T12:58:27;11.10;;;3.70;;
72117;SDS011;59992;47.490;8.736;2024-01-15T13:01:17;8.50;;;3.90;;
72117;SDS011;59992;47.490;8.736;2024-01-15T13:04:09;6.70;;;3.50;;
72117;SDS011;59992;47.490;8.736;2024-01-15T13:06:59;7.30;;;3.50;;
72117;SDS011;59992;47.490;8.736;2024-01-15T13:09:49;8.60;;;4.00;;
72117;SDS011;59992;47.490;8.736;2024-01-15T13:12:41;7.50;;;3.30;;
72117;SDS011;59992;47.490;8.736;2024-01-15T13:15:31;7.50;;;3.50;;
72117;SDS011;59992;47.490;8.736;2024-01-15T13:18:21;10.00;;;4.30;;
72117;SDS011;59992;47.490;8.736;2024-01-15T13:21:12;7.00;;;3.60;;
72117;SDS011;59992;47.490;8.736;2024-01-15T13:24:02;6.70;;;3.10;;
72117;SDS011;59992;47.490;8.736;2024-01-15T13:26:52;9.00;;;3.30;;
72117;SDS011;59992;47.490;8.736;2024-01-15T13:29:44;7.90;;;3.50;;
72117;SDS011;59992;47.490;8.736;2024-01-15T13:32:34;8.10;;;3.50;;
72117;SDS011;59992;47.490;8.736;2024-01-15T13:35:25;7.90;;;3.70;;
72117;SDS011;59992;47.490;8.736;2024-01-15T13:38:15;8.70;;;4.20;;
72117;SDS011;59992;47.490;8.736;2024-01-15T13:41:06;11.30;;;4.30;;
72117;SDS011;59992;47.490;8.736;2024-01-15T13:43:56;11.20;;;4.50;;
72117;SDS011;59992;47.490;8.736;2024-01-15T13:46:47;10.50;;;4.70;;
72117;SDS011;59992;47.490;8.736;2024-01-15T13:49:37;9.70;;;5.10;;
72117;SDS011;59992;47.490;8.736;2024-01-15T13:52:28;10.80;;;5.30;;
72117;SDS011;59992;47.490;8.736;2024-01-15T13:55:18;12.00;;;5.90;;
72117;SDS011;59992;47.490;8.736;2024-01-15T13:58:08;11.40;;;5.30;;
72117;SDS011;59992;47.490;8.736;2024-01-15T14:01:00;12.30;;;5.80;;
72117;SDS011;59992;47.490;8.736;2024-01-15T14:03:51;12.90;;;5.50;;
72117;SDS011;59992;47.490;8.736;2024-01-15T14:06:42;11.30;;;5.20;;
72117;SDS011;59992;47.490;8.736;2024-01-15T14:09:32;16.10;;;7.10;;
72117;SDS011;59992;47.490;8.736;2024-01-15T14:12:25;15.70;;;7.30;;
72117;SDS011;59992;47.490;8.736;2024-01-15T14:15:15;19.10;;;6.90;;
72117;SDS011;59992;47.490;8.736;2024-01-15T14:18:06;21.10;;;8.60;;
72117;SDS011;59992;47.490;8.736;2024-01-15T14:20:56;21.70;;;8.90;;
72117;SDS011;59992;47.490;8.736;2024-01-15T14:23:47;23.50;;;8.40;;
72117;SDS011;59992;47.490;8.736;2024-01-15T14:26:37;19.90;;;8.90;;
72117;SDS011;59992;47.490;8.736;2024-01-15T14:29:28;20.60;;;9.00;;
72117;SDS011;59992;47.490;8.736;2024-01-15T14:32:19;17.20;;;8.30;;
72117;SDS011;59992;47.490;8.736;2024-01-15T14:35:09;20.40;;;9.00;;
72117;SDS011;59992;47.490;8.736;2024-01-15T14:38:00;23.20;;;9.10;;
72117;SDS011;59992;47.490;8.736;2024-01-15T14:40:51;19.00;;;8.50;;
72117;SDS011;59992;47.490;8.736;2024-01-15T14:43:41;21.00;;;8.80;;
72117;SDS011;59992;47.490;8.736;2024-01-15T14:46:32;21.30;;;8.90;;
72117;SDS011;59992;47.490;8.736;2024-01-15T14:49:22;20.20;;;9.60;;
72117;SDS011;59992;47.490;8.736;2024-01-15T14:52:13;22.00;;;9.70;;
72117;SDS011;59992;47.490;8.736;2024-01-15T14:55:05;20.80;;;9.30;;
72117;SDS011;59992;47.490;8.736;2024-01-15T14:57:56;22.90;;;9.10;;
72117;SDS011;59992;47.490;8.736;2024-01-15T15:00:46;21.10;;;9.40;;
72117;SDS011;59992;47.490;8.736;2024-01-15T15:03:37;23.10;;;9.10;;
72117;SDS011;59992;47.490;8.736;2024-01-15T15:06:28;22.00;;;8.80;;
72117;SDS011;59992;47.490;8.736;2024-01-15T15:09:18;20.90;;;9.20;;
72117;SDS011;59992;47.490;8.736;2024-01-15T15:12:09;20.30;;;8.50;;
72117;SDS011;59992;47.490;8.736;2024-01-15T15:15:00;23.60;;;9.50;;
72117;SDS011;59992;47.490;8.736;2024-01-15T15:17:51;18.50;;;9.00;;
72117;SDS011;59992;47.490;8.736;2024-01-15T15:20:42;22.00;;;9.20;;
72117;SDS011;59992;47.490;8.736;2024-01-15T15:23:33;16.10;;;7.40;;
72117;SDS011;59992;47.490;8.736;2024-01-15T15:26:26;15.50;;;6.80;;
72117;SDS011;59992;47.490;8.736;2024-01-15T15:29:16;16.70;;;7.20;;
72117;SDS011;59992;47.490;8.736;2024-01-15T15:32:07;18.10;;;7.90;;
72117;SDS011;59992;47.490;8.736;2024-01-15T15:35:00;18.20;;;7.20;;
72117;SDS011;59992;47.490;8.736;2024-01-15T15:37:51;17.00;;;7.80;;
72117;SDS011;59992;47.490;8.736;2024-01-15T15:40:41;17.30;;;7.30;;
72117;SDS011;59992;47.490;8.736;2024-01-15T15:43:32;18.50;;;7.00;;
72117;SDS011;59992;47.490;8.736;2024-01-15T15:46:22;10.60;;;4.30;;
72117;SDS011;59992;47.490;8.736;2024-01-15T15:49:13;17.00;;;6.90;;
72117;SDS011;59992;47.490;8.736;2024-01-15T15:52:03;17.10;;;7.10;;
72117;SDS011;59992;47.490;8.736;2024-01-15T15:54:53;15.70;;;6.50;;
72117;SDS011;59992;47.490;8.736;2024-01-15T15:57:44;15.30;;;6.20;;
72117;SDS011;59992;47.490;8.736;2024-01-15T16:00:35;14.40;;;6.00;;
72117;SDS011;59992;47.490;8.736;2024-01-15T16:03:25;13.00;;;5.70;;
72117;SDS011;59992;47.490;8.736;2024-01-15T16:06:16;10.00;;;4.60;;
72117;SDS011;59992;47.490;8.736;2024-01-15T16:09:06;11.00;;;4.30;;
72117;SDS011;59992;47.490;8.736;2024-01-15T16:11:58;10.80;;;4.60;;
72117;SDS011;59992;47.490;8.736;2024-01-15T16:14:48;13.70;;;5.20;;
72117;SDS011;59992;47.490;8.736;2024-01-15T16:17:39;10.80;;;4.70;;
72117;SDS011;59992;47.490;8.736;2024-01-15T16:20:31;13.30;;;4.70;;
72117;SDS011;59992;47.490;8.736;2024-01-15T16:23:21;10.30;;;4.10;;
72117;SDS011;59992;47.490;8.736;2024-01-15T16:26:12;9.00;;;3.70;;
72117;SDS011;59992;47.490;8.736;2024-01-15T16:29:03;9.20;;;4.50;;
72117;SDS011;59992;47.490;8.736;2024-01-15T16:31:54;10.30;;;4.70;;
72117;SDS011;59992;47.490;8.736;2024-01-15T16:34:44;9.90;;;3.70;;
72117;SDS011;59992;47.490;8.736;2024-01-15T16:37:35;9.70;;;4.40;;
72117;SDS011;59992;47.490;8.736;2024-01-15T16:40:27;9.70;;;4.50;;
72117;SDS011;59992;47.490;8.736;2024-01-15T16:43:18;7.40;;;3.50;;
72117;SDS011;59992;47.490;8.736;2024-01-15T16:46:10;8.90;;;4.00;;
72117;SDS011;59992;47.490;8.736;2024-01-15T16:49:00;8.90;;;3.80;;
72117;SDS011;59992;47.490;8.736;2024-01-15T16:51:57;9.60;;;4.10;;
72117;SDS011;59992;47.490;8.736;2024-01-15T16:54:48;10.70;;;4.40;;
72117;SDS011;59992;47.490;8.736;2024-01-15T16:57:39;11.70;;;5.00;;
72117;SDS011;59992;47.490;8.736;2024-01-15T17:00:29;7.80;;;3.90;;
72117;SDS011;59992;47.490;8.736;2024-01-15T17:03:20;7.40;;;2.70;;